KAPN/APN METAR and TAF weather

Enter ICAO airport designator
Station Type Date Time Source
KAPN METAR 2022/06/28 11:54 UTC NOAA

KAPN 281154Z 21005KT 10SM CLR 14/08 A3016 RMK AO2 SLP213 T01440078 10144 20056 56004


Station Type Date Time Source
KAPN Decoded METAR 2022/06/28 11:54 UTC NOAA

ALPENA COUNTY REGIONAL AIRPORT, MI, United States (KAPN) 45-05N 083-34W 210M
Jun 28, 2022 - 07:54 AM EDT / 2022.06.28 1154 UTC
Wind: from the SSW (210 degrees) at 6 MPH (5 KT):0
Visibility: 10 mile(s):0
Sky conditions: clear
Temperature: 57.9 F (14.4 C)
Dew Point: 46.0 F (7.8 C)
Relative Humidity: 64%
Pressure (altimeter): 30.16 in. Hg (1021 hPa)
Pressure tendency: 0.01 inches (0.4 hPa) lower than three hours ago
ob: KAPN 281154Z 21005KT 10SM CLR 14/08 A3016 RMK AO2 SLP213 T01440078 10144 20056 56004
cycle: 12

Station Type Date Time Source
KAPN TAF 2022/06/28 12:22 UTC NOAA

TAF KAPN 281120Z 2812/2912 20005KT P6SM SKC
FM281700 25011G19KT P6SM FEW070
FM282000 25012G20KT P6SM VCTS BKN050CB
FM290000 19005KT 6SM SHRA BR VCTS BKN035CB
FM290600 VRB03KT P6SM OVC018

Example: see airport list